Time;durP1;ratioP1;P1;durP2;ratioP2;P2;SDS_P1;SDS_P2;PMS_P1;PMS_P2;Temp;Humidity;BMP_temperature;BMP_pressure;BME280_temperature;BME280_humidity;BME280_pressure;Samples;Min_cycle;Max_cycle;Signal;HPM_P1;HPM_P2
2021/05/15 00:00:37;;;;;;;5.33;2.60;;;;;;;5.16;100.00;100067.25;5025975;28;20189;-71
2021/05/15 00:03:04;;;;;;;4.53;2.70;;;;;;;5.18;100.00;100062.91;5027437;28;20322;-72
2021/05/15 00:05:32;;;;;;;4.80;3.10;;;;;;;5.26;100.00;100058.50;5027221;28;20200;-72
2021/05/15 00:07:59;;;;;;;3.57;2.70;;;;;;;5.03;100.00;100066.53;5023776;28;20312;-71
2021/05/15 00:10:26;;;;;;;3.93;2.80;;;;;;;4.95;100.00;100065.78;5022563;28;20196;-72
2021/05/15 00:12:53;;;;;;;3.60;2.47;;;;;;;4.98;100.00;100066.59;5027433;28;20199;-72
2021/05/15 00:15:19;;;;;;;3.87;2.67;;;;;;;5.05;100.00;100062.22;5020895;28;20258;-71
2021/05/15 00:17:51;;;;;;;5.03;2.70;;;;;;;5.04;100.00;100065.66;5028256;28;20225;-71
2021/05/15 00:20:20;;;;;;;3.53;2.27;;;;;;;4.94;100.00;100064.91;5020771;28;20206;-71
2021/05/15 00:22:46;;;;;;;4.90;2.47;;;;;;;4.78;100.00;100068.53;5021511;28;20583;-72
2021/05/15 00:25:15;;;;;;;3.00;2.50;;;;;;;4.86;100.00;100067.59;5026434;28;20239;-72
2021/05/15 00:27:41;;;;;;;2.90;2.60;;;;;;;4.84;100.00;100066.75;5027424;28;20224;-71
2021/05/15 00:30:12;;;;;;;3.60;2.80;;;;;;;4.82;100.00;100065.91;5024916;28;20204;-72
2021/05/15 00:32:38;;;;;;;2.60;2.40;;;;;;;4.93;100.00;100066.63;5016652;28;20215;-72
2021/05/15 00:35:07;;;;;;;3.60;2.67;;;;;;;4.78;100.00;100065.97;5023871;28;20204;-72
2021/05/15 00:37:33;;;;;;;4.23;2.77;;;;;;;4.78;100.00;100065.97;5029336;28;20216;-72
2021/05/15 00:39:59;;;;;;;3.47;2.57;;;;;;;4.79;100.00;100067.69;5024733;28;20715;-72
2021/05/15 00:46:13;;;;;;;3.70;2.50;;;;;;;4.81;100.00;100061.63;5026367;28;20387;-72
2021/05/15 00:48:39;;;;;;;4.00;2.90;;;;;;;4.76;100.00;100063.38;5028568;28;20611;-72
2021/05/15 00:51:05;;;;;;;4.73;3.50;;;;;;;4.70;100.00;100066.06;5022883;28;20200;-72
2021/05/15 00:53:31;;;;;;;4.30;3.47;;;;;;;4.78;100.00;100060.78;5018618;28;20777;-72
2021/05/15 00:55:57;;;;;;;4.43;3.53;;;;;;;4.76;100.00;100065.97;5025951;28;20303;-72
2021/05/15 01:09:58;;;;;;;3.93;3.30;;;;;;;4.81;100.00;100065.94;5023075;28;20247;-72
2021/05/15 01:12:52;;;;;;;3.37;2.97;;;;;;;4.84;100.00;100071.91;5016978;28;20735;-72
2021/05/15 01:15:19;;;;;;;4.93;3.40;;;;;;;4.70;100.00;100063.47;5018195;28;20272;-72
2021/05/15 01:17:49;;;;;;;4.20;2.97;;;;;;;4.74;100.00;100063.41;5019725;28;20349;-72
2021/05/15 01:20:16;;;;;;;5.03;3.67;;;;;;;4.81;100.00;100073.69;5021245;28;20203;-72
2021/05/15 01:26:14;;;;;;;4.23;3.23;;;;;;;4.73;100.00;100066.88;5017762;28;20653;-72
2021/05/15 01:28:40;;;;;;;4.23;3.20;;;;;;;4.71;100.00;100070.34;5019353;28;20296;-72
2021/05/15 01:31:06;;;;;;;3.70;2.83;;;;;;;4.77;100.00;100069.41;5019013;28;20215;-72
2021/05/15 01:33:33;;;;;;;5.10;3.17;;;;;;;4.61;100.00;100063.56;5026371;28;20211;-72
2021/05/15 01:35:59;;;;;;;4.13;3.30;;;;;;;4.67;100.00;100061.75;5022702;28;20204;-72
2021/05/15 01:38:25;;;;;;;4.47;3.47;;;;;;;4.64;100.00;100068.69;5015244;28;20220;-72
2021/05/15 01:40:51;;;;;;;4.43;3.30;;;;;;;4.63;100.00;100065.25;5024351;28;20230;-72
2021/05/15 01:43:18;;;;;;;4.23;3.07;;;;;;;4.64;100.00;100059.22;5023385;28;20299;-72
2021/05/15 01:45:45;;;;;;;5.90;3.50;;;;;;;4.66;100.00;100052.31;5023926;28;20192;-72
2021/05/15 01:48:16;;;;;;;4.03;3.00;;;;;;;4.72;100.00;100052.25;5027193;28;20219;-72
2021/05/15 01:50:44;;;;;;;6.50;3.80;;;;;;;4.68;100.00;100053.16;5015121;28;20196;-72
2021/05/15 01:53:10;;;;;;;4.73;4.00;;;;;;;4.77;100.00;100053.91;5023636;28;20199;-71
2021/05/15 01:55:36;;;;;;;4.70;3.50;;;;;;;4.78;100.00;100045.28;5026194;28;20262;-72
2021/05/15 01:58:02;;;;;;;5.97;3.87;;;;;;;4.73;100.00;100047.91;5023213;28;20220;-72
2021/05/15 02:00:29;;;;;;;4.73;3.63;;;;;;;4.60;100.00;100049.78;5020470;28;20641;-72
2021/05/15 02:02:55;;;;;;;5.17;4.07;;;;;;;4.64;100.00;100046.28;5026948;28;20711;-72
2021/05/15 02:05:21;;;;;;;7.63;4.33;;;;;;;4.47;100.00;100049.06;5019623;28;20199;-72
2021/05/15 02:07:47;;;;;;;5.90;4.70;;;;;;;4.26;100.00;100055.31;5021884;28;20223;-72
2021/05/15 02:10:14;;;;;;;5.30;4.23;;;;;;;4.26;100.00;100055.31;5019011;28;20192;-72
2021/05/15 02:12:40;;;;;;;6.90;4.20;;;;;;;4.46;100.00;100056.84;5023117;28;20196;-72
2021/05/15 02:15:07;;;;;;;4.67;3.80;;;;;;;4.25;100.00;100050.16;5022683;28;20204;-72
2021/05/15 02:17:34;;;;;;;4.87;3.70;;;;;;;4.38;100.00;100051.75;5021460;28;20219;-72
2021/05/15 02:20:00;;;;;;;5.17;3.80;;;;;;;4.25;100.00;100043.25;5018490;28;20710;-72
2021/05/15 02:22:26;;;;;;;6.03;3.90;;;;;;;4.26;100.00;100044.97;5021779;28;20216;-72
2021/05/15 02:24:52;;;;;;;4.30;3.20;;;;;;;4.19;100.00;100048.50;5028182;28;20227;-72
2021/05/15 02:27:18;;;;;;;6.17;3.87;;;;;;;4.15;100.00;100041.63;5016588;28;20235;-72
2021/05/15 02:29:44;;;;;;;4.80;3.70;;;;;;;4.02;100.00;100042.63;5021007;28;20665;-72
2021/05/15 02:32:10;;;;;;;4.33;3.30;;;;;;;4.14;100.00;100034.78;5023298;28;20227;-71
2021/05/15 02:34:37;;;;;;;4.60;3.27;;;;;;;4.43;100.00;100036.22;5016017;28;20211;-72
2021/05/15 02:37:03;;;;;;;4.23;3.73;;;;;;;4.42;100.00;100027.63;5021394;28;20195;-72
2021/05/15 02:39:29;;;;;;;4.70;3.30;;;;;;;4.28;100.00;100025.16;5013223;28;20201;-72
2021/05/15 02:41:55;;;;;;;4.97;3.80;;;;;;;4.34;100.00;100025.13;5022794;28;20246;-72
2021/05/15 02:44:21;;;;;;;5.03;4.13;;;;;;;4.14;100.00;100029.63;5015978;28;20207;-72
2021/05/15 02:46:47;;;;;;;5.40;3.33;;;;;;;4.06;100.00;100029.66;5023953;28;20204;-72
2021/05/15 02:49:13;;;;;;;3.93;3.40;;;;;;;4.11;100.00;100027.06;5020430;28;20228;-72
2021/05/15 02:51:40;;;;;;;5.77;3.40;;;;;;;4.24;100.00;100022.63;5023701;28;20211;-72
2021/05/15 02:54:06;;;;;;;5.27;3.87;;;;;;;4.07;100.00;100026.22;5035830;28;20278;-72
2021/05/15 02:56:33;;;;;;;5.57;3.63;;;;;;;4.22;100.00;100019.22;5022837;28;20573;-72
2021/05/15 02:58:59;;;;;;;4.47;3.30;;;;;;;4.23;100.00;100016.63;5021248;28;20223;-72
2021/05/15 03:01:25;;;;;;;3.87;3.13;;;;;;;4.02;100.00;100022.84;5019007;28;20212;-72
2021/05/15 03:03:51;;;;;;;4.07;3.67;;;;;;;3.92;100.00;100032.41;5019026;28;20247;-72
2021/05/15 03:06:17;;;;;;;5.43;3.80;;;;;;;4.05;100.00;100022.81;5024280;28;20672;-72
2021/05/15 03:08:44;;;;;;;5.63;3.23;;;;;;;3.98;100.00;100027.16;5023351;28;20219;-72
2021/05/15 03:11:10;;;;;;;4.83;3.60;;;;;;;4.06;100.00;100021.94;5018611;28;20208;-72
2021/05/15 03:13:36;;;;;;;7.00;3.87;;;;;;;4.13;100.00;100023.59;5015468;28;20705;-72
2021/05/15 03:16:03;;;;;;;4.80;3.40;;;;;;;4.20;100.00;100014.06;5019188;28;20290;-72
2021/05/15 03:18:29;;;;;;;5.40;3.50;;;;;;;4.16;100.00;100031.28;5025109;28;20223;-72
2021/05/15 03:20:56;;;;;;;4.97;3.73;;;;;;;4.10;100.00;100017.63;5022925;28;20263;-72
2021/05/15 03:23:22;;;;;;;4.40;3.67;;;;;;;4.11;100.00;100007.25;5020399;28;20707;-72
2021/05/15 03:25:48;;;;;;;5.17;3.50;;;;;;;4.10;100.00;100023.63;5018826;28;20208;-72
2021/05/15 03:28:14;;;;;;;5.10;3.73;;;;;;;4.27;100.00;100013.13;5020903;28;20223;-72
2021/05/15 03:30:41;;;;;;;5.13;3.57;;;;;;;4.25;100.00;100024.34;5020723;28;20202;-72
2021/05/15 03:33:07;;;;;;;5.30;3.33;;;;;;;4.50;100.00;100014.63;5008733;28;20200;-72
2021/05/15 03:35:33;;;;;;;4.57;3.77;;;;;;;4.57;100.00;100012.81;5020681;28;20192;-72
2021/05/15 03:37:59;;;;;;;5.17;4.00;;;;;;;4.68;100.00;100011.00;5016858;28;20262;-72
2021/05/15 03:40:25;;;;;;;7.53;4.23;;;;;;;4.82;100.00;100018.53;5014619;28;20235;-72
2021/05/15 03:42:54;;;;;;;7.80;4.03;;;;;;;4.96;100.00;100008.94;5022020;28;20305;-72
2021/05/15 03:45:20;;;;;;;5.37;4.33;;;;;;;5.07;100.00;100007.03;5016237;28;20204;-72
2021/05/15 03:47:46;;;;;;;5.20;4.30;;;;;;;5.22;100.00;100012.88;5018727;28;20679;-72
2021/05/15 03:50:13;;;;;;;5.23;4.40;;;;;;;5.26;100.00;100018.00;5021594;28;20588;-71
2021/05/15 03:52:39;;;;;;;7.37;5.63;;;;;;;5.37;100.00;100012.66;5019850;28;20204;-72
2021/05/15 03:55:06;;;;;;;7.37;5.77;;;;;;;5.45;100.00;100017.72;5020815;28;20283;-72
2021/05/15 03:57:32;;;;;;;7.23;5.57;;;;;;;5.57;100.00;100025.28;5017659;28;20227;-72
2021/05/15 03:59:59;;;;;;;6.03;5.00;;;;;;;5.73;100.00;100019.88;5011901;28;20581;-72
2021/05/15 04:02:25;;;;;;;7.00;5.77;;;;;;;5.84;100.00;100017.97;5022658;28;20707;-72
2021/05/15 04:04:51;;;;;;;8.83;6.03;;;;;;;5.91;100.00;100019.59;5022027;28;20219;-72
2021/05/15 04:07:18;;;;;;;10.07;6.43;;;;;;;5.88;100.00;100019.63;5022112;28;20298;-72
2021/05/15 04:09:44;;;;;;;7.20;5.43;;;;;;;5.95;100.00;100012.63;5021206;28;20205;-71
2021/05/15 04:12:11;;;;;;;7.10;5.37;;;;;;;5.92;100.00;100025.63;5008465;28;20933;-72
2021/05/15 04:14:41;;;;;;;7.97;6.30;;;;;;;5.89;100.00;100026.50;5021604;28;20674;-72
2021/05/15 04:17:28;;;;;;;7.73;5.80;;;;;;;5.96;100.00;100027.28;5026353;28;20196;-72
2021/05/15 04:23:41;;;;;;;8.73;6.20;;;;;;;6.04;100.00;100023.69;5023767;28;20222;-72
2021/05/15 04:26:10;;;;;;;7.27;5.90;;;;;;;6.12;100.00;100027.88;5021670;28;20572;-72
2021/05/15 04:28:36;;;;;;;10.03;7.10;;;;;;;6.12;100.00;100020.13;5020788;28;20650;-72
2021/05/15 04:31:02;;;;;;;11.27;8.10;;;;;;;6.18;100.00;100020.88;5023389;28;20210;-72
2021/05/15 04:33:29;;;;;;;12.87;8.90;;;;;;;6.23;100.00;100011.28;5024518;28;20754;-72
2021/05/15 04:35:56;;;;;;;15.67;10.33;;;;;;;6.29;100.00;100007.72;5020207;28;20207;-72
2021/05/15 04:38:22;;;;;;;16.33;11.53;;;;;;;6.47;100.00;100019.47;5021070;28;20223;-72
2021/05/15 04:40:49;;;;;;;18.03;12.23;;;;;;;6.62;100.00;100020.94;5025885;28;20207;-72
2021/05/15 04:43:15;;;;;;;18.27;11.97;;;;;;;6.76;100.00;100018.06;5024222;28;20572;-72
2021/05/15 04:45:41;;;;;;;18.63;13.20;;;;;;;6.86;100.00;100026.50;5023287;28;20199;-72
2021/05/15 04:48:08;;;;;;;19.93;12.07;;;;;;;6.96;100.00;100038.38;5022327;28;20224;-72
2021/05/15 04:50:35;;;;;;;20.93;13.23;;;;;;;7.16;100.00;100032.81;5023177;28;20220;-72
2021/05/15 04:53:01;;;;;;;16.47;11.17;;;;;;;7.33;100.00;100037.59;5021393;28;20555;-72
2021/05/15 04:55:27;;;;;;;19.80;12.60;;;;;;;7.43;100.00;100035.66;5021959;28;20188;-72
2021/05/15 04:57:53;;;;;;;21.17;13.60;;;;;;;7.42;100.00;100031.34;5022733;28;20295;-72
2021/05/15 05:00:19;;;;;;;17.53;13.13;;;;;;;7.48;100.00;100028.66;5022656;28;20200;-72
2021/05/15 05:02:45;;;;;;;18.97;13.03;;;;;;;7.62;100.00;100016.19;5017704;28;20230;-72
2021/05/15 05:05:11;;;;;;;24.97;14.97;;;;;;;7.71;100.00;100034.13;5021199;28;20192;-72
2021/05/15 05:07:39;;;;;;;17.37;13.10;;;;;;;7.81;100.00;100026.13;5016919;28;20228;-72
2021/05/15 05:10:06;;;;;;;19.17;12.80;;;;;;;7.90;100.00;100031.09;5020357;28;20203;-72
2021/05/15 05:12:32;;;;;;;21.17;13.43;;;;;;;8.05;100.00;100029.84;5021446;28;20208;-72
2021/05/15 05:14:58;;;;;;;18.23;13.43;;;;;;;8.18;100.00;100026.06;5025352;28;20597;-72
2021/05/15 05:17:24;;;;;;;22.23;14.00;;;;;;;8.28;100.00;100021.47;5023144;28;20883;-72
2021/05/15 05:19:50;;;;;;;17.37;12.90;;;;;;;8.38;100.00;100022.09;5023219;28;20204;-72
2021/05/15 05:22:16;;;;;;;18.00;13.10;;;;;;;8.50;100.00;100014.84;5025097;28;20704;-72
2021/05/15 05:24:45;;;;;;;19.80;13.50;;;;;;;8.67;100.00;100016.13;5013989;28;20639;-72
2021/05/15 05:27:11;;;;;;;20.57;14.07;;;;;;;8.78;100.00;100016.69;5016459;28;20235;-72
2021/05/15 05:29:37;;;;;;;18.63;13.63;;;;;;;8.94;100.00;100022.31;5022792;28;20204;-72
2021/05/15 05:32:06;;;;;;;19.50;13.90;;;;;;;9.04;100.00;100025.47;5022457;28;20201;-72
2021/05/15 05:34:32;;;;;;;17.43;12.97;;;;;;;9.14;100.00;100023.47;5016107;28;20197;-72
2021/05/15 05:36:58;;;;;;;17.03;12.23;;;;;;;9.26;100.00;100023.94;5020046;28;20204;-72
2021/05/15 05:39:24;;;;;;;17.10;12.60;;;;;;;9.33;100.00;100029.81;5026146;28;20196;-72
2021/05/15 05:41:51;;;;;;;16.70;11.93;;;;;;;9.40;100.00;100039.13;5019750;28;20212;-72
2021/05/15 05:44:17;;;;;;;15.47;11.83;;;;;;;9.55;100.00;100039.56;5017518;28;20252;-72
2021/05/15 05:46:43;;;;;;;15.13;12.10;;;;;;;9.66;100.00;100032.28;5023282;28;20228;-72
2021/05/15 05:49:09;;;;;;;15.43;11.70;;;;;;;9.78;100.00;100031.88;5023036;28;20475;-72
2021/05/15 05:51:35;;;;;;;16.63;12.10;;;;;;;9.86;100.00;100040.28;5032923;28;20193;-72
2021/05/15 05:54:01;;;;;;;14.00;10.73;;;;;;;9.91;100.00;100039.28;5017027;28;20194;-72
2021/05/15 05:56:27;;;;;;;13.50;10.80;;;;;;;9.98;100.00;100044.25;5017943;28;20206;-72
2021/05/15 05:58:55;;;;;;;12.00;9.80;;;;;;;10.11;100.00;100036.84;5018245;28;20236;-72
2021/05/15 06:01:21;;;;;;;13.27;10.23;;;;;;;10.16;100.00;100042.78;5015571;28;20207;-72
2021/05/15 06:03:47;;;;;;;11.17;8.90;;;;;;;10.21;98.09;100038.25;5022166;28;20222;-72
2021/05/15 06:06:13;;;;;;;11.03;8.27;;;;;;;10.34;100.00;100033.53;5020489;28;20636;-72
2021/05/15 06:08:39;;;;;;;9.90;7.87;;;;;;;10.42;98.65;100035.84;5013881;28;20292;-72
2021/05/15 06:11:06;;;;;;;10.27;8.37;;;;;;;10.49;96.48;100039.94;5019663;28;20195;-72
2021/05/15 06:13:32;;;;;;;9.00;7.57;;;;;;;10.50;95.62;100040.78;5019120;28;20232;-72
2021/05/15 06:15:59;;;;;;;8.03;7.00;;;;;;;10.67;98.08;100041.03;5021965;28;20203;-72
2021/05/15 06:18:25;;;;;;;9.03;6.67;;;;;;;10.74;97.65;100037.31;5024857;28;20212;-72
2021/05/15 06:20:51;;;;;;;11.33;7.13;;;;;;;10.78;96.60;100031.09;5015642;28;20214;-72
2021/05/15 06:23:17;;;;;;;7.83;6.00;;;;;;;10.83;95.11;100050.94;5018018;28;20209;-72
2021/05/15 06:25:44;;;;;;;8.23;5.73;;;;;;;11.03;96.74;100039.75;5020112;28;20200;-72
2021/05/15 06:28:11;;;;;;;6.57;5.60;;;;;;;11.17;96.21;100045.34;5021779;28;20219;-72
2021/05/15 06:30:37;;;;;;;6.77;5.60;;;;;;;11.26;95.37;100044.13;5017551;28;20216;-72
2021/05/15 06:33:04;;;;;;;5.83;5.23;;;;;;;11.38;94.94;100043.66;5022388;28;20203;-72
2021/05/15 06:35:32;;;;;;;6.50;5.10;;;;;;;11.47;93.73;100047.69;5019309;28;20235;-72
2021/05/15 06:37:58;;;;;;;5.07;4.57;;;;;;;11.54;93.99;100043.91;5020658;28;20330;-72
2021/05/15 06:40:24;;;;;;;6.80;4.40;;;;;;;11.64;92.21;100047.00;5020337;28;20195;-72
2021/05/15 06:42:50;;;;;;;4.77;4.30;;;;;;;11.79;92.88;100045.53;5014929;28;20257;-73
2021/05/15 06:45:16;;;;;;;4.77;4.20;;;;;;;11.85;90.16;100045.28;5019844;28;20703;-72
2021/05/15 06:47:42;;;;;;;4.43;4.03;;;;;;;11.95;89.92;100045.81;5019860;28;20762;-72
2021/05/15 06:50:10;;;;;;;4.63;3.80;;;;;;;12.06;91.55;100052.25;5016224;28;20228;-72
2021/05/15 06:52:36;;;;;;;3.80;3.43;;;;;;;12.08;88.05;100060.91;5018657;28;20614;-72
2021/05/15 06:55:02;;;;;;;3.30;2.90;;;;;;;12.08;87.05;100062.66;5018279;28;20212;-72
2021/05/15 06:57:28;;;;;;;3.23;2.93;;;;;;;12.19;88.14;100051.75;5021782;28;20300;-72
2021/05/15 06:59:54;;;;;;;3.40;3.10;;;;;;;12.30;87.53;100054.78;5014266;28;20212;-72
2021/05/15 07:02:20;;;;;;;3.30;3.00;;;;;;;12.38;86.82;100055.28;5016885;28;20691;-72
2021/05/15 07:04:46;;;;;;;3.47;2.60;;;;;;;12.46;84.61;100066.28;5021680;28;20208;-72
2021/05/15 07:07:13;;;;;;;3.37;2.40;;;;;;;12.63;84.54;100056.88;5018521;28;20307;-72
2021/05/15 07:09:39;;;;;;;3.20;2.57;;;;;;;12.71;83.83;100056.53;5015421;28;20208;-72
2021/05/15 07:12:05;;;;;;;3.10;2.80;;;;;;;12.66;82.79;100062.81;5017419;28;20201;-72
2021/05/15 07:14:31;;;;;;;2.67;2.20;;;;;;;12.88;82.81;100056.63;5020022;28;20538;-72
2021/05/15 07:16:57;;;;;;;2.63;2.17;;;;;;;13.04;84.97;100054.19;5019506;28;20212;-73
2021/05/15 07:19:23;;;;;;;2.90;2.37;;;;;;;13.18;84.46;100050.94;5012715;28;20242;-72
2021/05/15 07:25:17;;;;;;;3.00;2.20;;;;;;;13.34;81.65;100058.94;5021662;28;20202;-72
2021/05/15 07:27:43;;;;;;;2.20;1.90;;;;;;;13.44;83.17;100047.13;5018540;28;20484;-72
2021/05/15 07:30:11;;;;;;;1.87;1.77;;;;;;;13.68;80.83;100055.56;5014745;28;20534;-72
2021/05/15 07:32:37;;;;;;;4.70;1.93;;;;;;;13.71;80.13;100054.59;5018474;28;20291;-72
2021/05/15 07:35:03;;;;;;;2.10;1.90;;;;;;;13.82;78.19;100060.16;5018674;28;20211;-72
2021/05/15 07:37:29;;;;;;;2.27;1.80;;;;;;;13.89;79.18;100050.22;5014611;28;20851;-72
2021/05/15 07:39:55;;;;;;;2.30;1.77;;;;;;;13.87;78.50;100059.94;5017097;28;20192;-72
2021/05/15 07:42:22;;;;;;;2.17;1.80;;;;;;;13.90;78.15;100052.78;5020295;28;20890;-72
2021/05/15 07:44:48;;;;;;;2.83;1.87;;;;;;;14.03;77.64;100055.63;5017013;28;20252;-72
2021/05/15 07:47:14;;;;;;;2.30;2.10;;;;;;;14.07;75.50;100054.56;5021534;28;20250;-72
2021/05/15 07:49:40;;;;;;;1.90;1.80;;;;;;;14.07;74.02;100066.81;5019749;28;20244;-72
2021/05/15 07:52:05;;;;;;;2.37;1.73;;;;;;;14.27;76.29;100055.34;5018703;28;20436;-72
2021/05/15 07:54:31;;;;;;;2.03;1.73;;;;;;;14.34;74.76;100057.56;5023336;28;20226;-72
2021/05/15 07:56:57;;;;;;;2.37;1.83;;;;;;;14.43;75.45;100055.41;5022049;28;20279;-72
2021/05/15 07:59:28;;;;;;;1.97;1.87;;;;;;;14.53;72.00;100059.25;5022910;28;20234;-72
2021/05/15 08:01:55;;;;;;;1.90;1.70;;;;;;;14.51;72.13;100058.47;5002642;28;20208;-72
2021/05/15 08:04:22;;;;;;;1.90;1.53;;;;;;;14.44;71.54;100057.97;5019990;28;20218;-72
2021/05/15 08:06:48;;;;;;;2.13;1.33;;;;;;;14.53;71.58;100062.72;5023181;28;20204;-72
2021/05/15 08:09:14;;;;;;;1.30;1.20;;;;;;;14.67;70.95;100063.81;5020861;28;20223;-72
2021/05/15 08:15:29;;;;;;;1.63;1.20;;;;;;;14.82;70.79;100062.16;4993457;22;20232;-72
2021/05/15 08:17:55;;;;;;;1.13;1.03;;;;;;;15.03;72.10;100058.41;5017338;28;20281;-71
2021/05/15 08:20:23;;;;;;;1.57;1.20;;;;;;;15.05;70.33;100058.31;5019063;28;20755;-72
2021/05/15 08:22:49;;;;;;;2.97;1.30;;;;;;;15.22;69.64;100054.78;5019457;28;20220;-73
2021/05/15 08:25:16;;;;;;;3.10;1.30;;;;;;;15.38;70.74;100052.16;5032889;28;20262;-73
2021/05/15 08:27:44;;;;;;;1.33;1.00;;;;;;;15.55;69.42;100051.22;5001768;28;20322;-72
2021/05/15 08:30:14;;;;;;;1.87;1.10;;;;;;;15.63;70.22;100033.25;5000732;28;20216;-72
2021/05/15 08:32:41;;;;;;;1.27;1.00;;;;;;;15.76;67.91;100047.44;5003636;28;20215;-73
2021/05/15 08:35:09;;;;;;;1.30;1.03;;;;;;;15.82;67.42;100040.97;5001141;28;20207;-73
2021/05/15 08:37:35;;;;;;;1.10;1.00;;;;;;;16.00;69.60;100050.41;5002763;28;20703;-72
2021/05/15 08:40:01;;;;;;;1.20;1.10;;;;;;;15.97;68.12;100045.34;5001725;28;20870;-72
2021/05/15 08:42:28;;;;;;;1.10;0.90;;;;;;;16.12;65.66;100048.03;5001351;28;20796;-73
2021/05/15 08:44:57;;;;;;;0.93;0.83;;;;;;;16.25;65.03;100056.88;5001782;28;20197;-72
2021/05/15 08:47:23;;;;;;;1.07;0.97;;;;;;;16.38;65.78;100044.69;5002461;28;20309;-72
2021/05/15 08:49:51;;;;;;;0.70;0.70;;;;;;;16.59;66.89;100039.09;4999810;28;20261;-72
2021/05/15 08:52:17;;;;;;;0.80;0.67;;;;;;;16.66;64.59;100048.31;5001856;28;20653;-73
2021/05/15 08:54:44;;;;;;;1.20;0.73;;;;;;;16.52;62.23;100043.88;5003219;28;20215;-72
2021/05/15 08:57:10;;;;;;;0.77;0.60;;;;;;;16.50;61.75;100050.16;5005200;28;20228;-73
2021/05/15 08:59:36;;;;;;;0.60;0.60;;;;;;;16.83;64.47;100034.09;4999594;28;20247;-73
2021/05/15 09:02:02;;;;;;;2.40;0.97;;;;;;;16.77;64.36;100040.59;5002445;28;20232;-73
2021/05/15 09:04:28;;;;;;;0.70;0.70;;;;;;;16.78;61.29;100042.31;5000929;28;20223;-73
2021/05/15 09:06:54;;;;;;;1.00;0.80;;;;;;;16.99;63.22;100032.25;5003059;28;20242;-72
2021/05/15 09:09:20;;;;;;;1.37;1.03;;;;;;;17.14;65.53;100035.72;4998715;28;20193;-73
2021/05/15 09:11:47;;;;;;;0.87;0.80;;;;;;;17.34;65.68;100038.88;5000601;28;20218;-73
2021/05/15 09:14:15;;;;;;;0.80;0.80;;;;;;;17.37;62.86;100043.94;4996567;28;20201;-73
2021/05/15 09:16:49;;;;;;;0.90;0.80;;;;;;;17.23;60.80;100052.72;5002190;28;20243;-74
2021/05/15 09:19:18;;;;;;;0.77;0.70;;;;;;;17.04;61.96;100037.22;5004295;28;20731;-73
2021/05/15 09:21:57;;;;;;;0.93;0.70;;;;;;;17.07;62.94;100042.31;4999800;28;20204;-74
2021/05/15 09:24:32;;;;;;;2.50;0.67;;;;;;;17.22;61.79;100038.72;5002629;28;20925;-72
2021/05/15 09:26:59;;;;;;;0.80;0.60;;;;;;;17.37;63.23;100036.06;5000458;28;20243;-75
2021/05/15 09:29:25;;;;;;;0.60;0.60;;;;;;;17.42;59.42;100049.78;4999389;28;20205;-75
2021/05/15 09:31:51;;;;;;;0.93;0.50;;;;;;;17.31;58.89;100050.47;5002695;28;20293;-75
2021/05/15 09:34:17;;;;;;;0.67;0.67;;;;;;;17.50;60.96;100044.88;5002654;28;20228;-74
2021/05/15 09:36:45;;;;;;;0.60;0.60;;;;;;;17.57;59.17;100046.16;5017159;28;20227;-75
2021/05/15 09:39:14;;;;;;;1.70;0.50;;;;;;;17.82;59.00;100041.06;5003237;28;20568;-75
2021/05/15 09:41:44;;;;;;;0.93;0.70;;;;;;;18.10;58.84;100046.25;5002639;28;20275;-73
2021/05/15 09:44:11;;;;;;;0.43;0.40;;;;;;;18.30;55.87;100052.00;4998215;28;20582;-74
2021/05/15 09:46:40;;;;;;;0.30;0.30;;;;;;;18.22;56.81;100047.22;5001062;28;20679;-74
2021/05/15 09:49:07;;;;;;;1.97;1.60;;;;;;;18.19;56.41;100038.66;5001190;28;20772;-73
2021/05/15 09:51:34;;;;;;;0.60;0.60;;;;;;;18.42;58.45;100032.69;4999513;28;20561;-74
2021/05/15 09:54:16;;;;;;;0.83;0.50;;;;;;;18.35;56.66;100031.41;4999104;28;20230;-74
2021/05/15 09:56:42;;;;;;;0.50;0.50;;;;;;;18.31;55.69;100037.81;5001293;28;20364;-74
2021/05/15 09:59:10;;;;;;;1.63;1.00;;;;;;;18.26;55.80;100027.59;5000771;28;20194;-78
2021/05/15 10:01:44;;;;;;;1.13;0.50;;;;;;;18.16;56.33;100035.28;4997150;28;20196;-74
2021/05/15 10:04:11;;;;;;;0.40;0.40;;;;;;;18.09;55.64;100035.81;5001176;28;20351;-72
2021/05/15 10:06:37;;;;;;;1.03;1.00;;;;;;;18.20;60.12;100016.63;4996234;28;20282;-73
2021/05/15 10:09:04;;;;;;;0.63;0.57;;;;;;;18.51;58.39;100020.66;4999212;28;20201;-73
2021/05/15 10:11:31;;;;;;;0.40;0.40;;;;;;;18.69;57.23;100021.16;4998161;28;20193;-74
2021/05/15 10:13:58;;;;;;;0.70;0.50;;;;;;;18.56;57.04;100021.19;5000538;28;20255;-73
2021/05/15 10:16:24;;;;;;;0.77;0.60;;;;;;;18.70;55.75;100020.22;5002056;28;21013;-73
2021/05/15 10:18:50;;;;;;;0.70;0.70;;;;;;;18.70;57.07;100017.59;5002935;28;20303;-75
2021/05/15 10:21:16;;;;;;;0.43;0.40;;;;;;;18.60;56.52;100014.72;4997562;28;20277;-75
2021/05/15 10:23:44;;;;;;;0.40;0.40;;;;;;;18.23;54.01;100021.69;5002176;28;20225;-75
2021/05/15 10:26:17;;;;;;;0.40;0.40;;;;;;;18.09;57.55;100012.91;5003578;28;20275;-75
2021/05/15 10:28:45;;;;;;;0.40;0.40;;;;;;;17.91;56.21;100019.41;5003132;28;20288;-75
2021/05/15 10:31:14;;;;;;;3.13;0.40;;;;;;;17.95;57.67;100013.81;4998293;28;20196;-75
2021/05/15 10:33:42;;;;;;;2.00;0.40;;;;;;;17.78;55.94;100014.06;4999242;28;20189;-74
2021/05/15 10:36:20;;;;;;;0.93;0.43;;;;;;;17.87;55.74;100008.22;4999497;28;20236;-75
2021/05/15 10:38:46;;;;;;;0.50;0.40;;;;;;;18.08;56.09;99994.53;5001025;28;20599;-73
2021/05/15 10:41:17;;;;;;;1.10;0.50;;;;;;;18.03;55.98;100004.53;5000955;28;20271;-75
2021/05/15 10:43:44;;;;;;;0.60;0.60;;;;;;;18.29;57.17;99997.50;4996703;28;20219;-75
2021/05/15 10:46:18;;;;;;;0.50;0.33;;;;;;;18.58;55.33;100002.59;4999287;28;20234;-74
2021/05/15 10:48:59;;;;;;;2.37;0.53;;;;;;;18.79;55.74;100000.25;5003382;28;20203;-75
2021/05/15 10:51:38;;;;;;;0.50;0.37;;;;;;;18.87;54.41;100000.56;4998347;28;20259;-75
2021/05/15 10:54:05;;;;;;;0.63;0.50;;;;;;;18.73;52.82;100001.50;5000781;28;20600;-75
2021/05/15 10:56:31;;;;;;;0.40;0.40;;;;;;;18.51;52.01;100008.28;5016635;28;20331;-75
2021/05/15 10:59:06;;;;;;;0.50;0.50;;;;;;;18.49;53.35;100001.44;5006186;28;20192;-72
2021/05/15 11:01:45;;;;;;;1.07;0.63;;;;;;;18.42;54.36;99992.25;5016134;28;20203;-75
2021/05/15 11:04:25;;;;;;;0.40;0.40;;;;;;;18.32;54.88;99990.22;4996763;28;20303;-74
2021/05/15 11:07:08;;;;;;;0.30;0.30;;;;;;;18.18;52.94;99995.59;4986247;28;20916;-75
2021/05/15 11:09:37;;;;;;;2.10;0.57;;;;;;;17.92;53.20;100000.88;5000088;28;20208;-76
2021/05/15 11:12:09;;;;;;;0.30;0.30;;;;;;;17.82;53.31;100005.03;5002643;28;20254;-75
2021/05/15 11:14:37;;;;;;;0.30;0.30;;;;;;;17.81;56.24;99994.56;4999902;28;20200;-73
2021/05/15 11:17:16;;;;;;;0.50;0.50;;;;;;;17.72;55.22;99996.84;4995089;28;20282;-76
2021/05/15 11:19:51;;;;;;;0.50;0.43;;;;;;;17.66;56.68;99988.50;4992615;28;20288;-75
2021/05/15 11:22:18;;;;;;;2.30;0.93;;;;;;;17.59;57.71;99988.09;5000017;28;20215;-74
2021/05/15 11:24:54;;;;;;;0.60;0.60;;;;;;;17.42;57.43;99990.00;4999106;28;20220;-73
2021/05/15 11:27:20;;;;;;;1.27;0.60;;;;;;;17.40;59.77;99986.63;4997841;28;20259;-74
2021/05/15 11:29:49;;;;;;;2.07;0.60;;;;;;;17.16;55.70;99996.09;5002009;28;20619;-74
2021/05/15 11:32:17;;;;;;;1.03;0.40;;;;;;;17.05;55.50;99994.16;4998025;28;20199;-75
2021/05/15 11:34:44;;;;;;;0.40;0.40;;;;;;;16.92;56.52;99991.47;4998480;28;20197;-75
2021/05/15 11:37:13;;;;;;;0.60;0.40;;;;;;;16.79;57.71;99988.69;4999761;28;20772;-75
2021/05/15 11:39:39;;;;;;;0.60;0.40;;;;;;;16.68;58.30;99992.94;5011292;28;20197;-74
2021/05/15 11:42:08;;;;;;;0.40;0.40;;;;;;;16.63;59.66;99993.22;4996777;28;20564;-74
2021/05/15 11:44:36;;;;;;;0.60;0.37;;;;;;;16.53;58.27;99998.19;4999600;28;20236;-75
2021/05/15 11:47:02;;;;;;;0.50;0.40;;;;;;;16.43;59.13;100005.81;4999582;28;20304;-75
2021/05/15 11:49:30;;;;;;;2.43;0.60;;;;;;;16.36;62.64;99993.09;4999970;28;20217;-75
2021/05/15 11:52:00;;;;;;;0.47;0.47;;;;;;;16.26;63.50;99992.81;5001361;28;20805;-74
2021/05/15 11:54:27;;;;;;;3.60;0.60;;;;;;;15.94;68.06;99995.56;4993156;28;20208;-74